Time;durP1;ratioP1;P1;durP2;ratioP2;P2;SDS_P1;SDS_P2;PMS_P1;PMS_P2;Temp;Humidity;BMP_temperature;BMP_pressure;BME280_temperature;BME280_humidity;BME280_pressure;Samples;Min_cycle;Max_cycle;Signal;HPM_P1;HPM_P2
2022/12/24 00:02:41;;;;;;;19.98;5.90;;;;;;;8.43;100.00;100514.72;10397525;28;20049;-91
2022/12/24 00:07:42;;;;;;;40.08;7.25;;;;;;;8.52;100.00;100510.88;10402843;28;20065;-93
2022/12/24 00:12:42;;;;;;;27.20;6.43;;;;;;;8.55;100.00;100504.03;10402880;28;20516;-86
2022/12/24 00:17:43;;;;;;;27.23;7.45;;;;;;;8.64;100.00;100502.78;10378884;28;20048;-94
2022/12/24 00:22:43;;;;;;;36.40;8.75;;;;;;;8.70;100.00;100509.13;10399714;28;20125;-92
2022/12/24 00:27:44;;;;;;;27.15;8.52;;;;;;;8.60;100.00;100513.00;10406291;28;20408;-93
2022/12/24 00:32:44;;;;;;;27.42;11.30;;;;;;;8.51;100.00;100527.34;10399874;28;20044;-92
2022/12/24 00:37:48;;;;;;;24.75;7.30;;;;;;;8.36;100.00;100518.72;10416618;28;20069;-93
2022/12/24 00:42:48;;;;;;;32.42;7.22;;;;;;;8.32;100.00;100541.16;10401102;28;20060;-92
2022/12/24 00:47:49;;;;;;;47.22;9.95;;;;;;;8.25;100.00;100538.13;10407815;28;20057;-93
2022/12/24 00:52:49;;;;;;;31.88;8.05;;;;;;;8.34;100.00;100554.25;10406488;28;20459;-92
2022/12/24 00:57:50;;;;;;;28.90;11.57;;;;;;;8.25;100.00;100570.34;10408279;28;20051;-93
2022/12/24 01:02:51;;;;;;;28.02;9.52;;;;;;;8.05;100.00;100577.09;10406563;28;20120;-91
2022/12/24 01:07:52;;;;;;;29.52;7.93;;;;;;;7.92;100.00;100586.84;10404677;28;20532;-91
2022/12/24 01:12:53;;;;;;;26.80;8.88;;;;;;;7.91;100.00;100602.44;10421442;28;20041;-90
2022/12/24 01:17:53;;;;;;;39.00;10.43;;;;;;;7.93;100.00;100612.09;10396384;28;20052;-91
2022/12/24 01:22:54;;;;;;;41.38;10.57;;;;;;;7.73;100.00;100617.94;10383801;28;20045;-85
2022/12/24 01:27:55;;;;;;;26.45;9.10;;;;;;;7.66;100.00;100628.81;10407862;28;22415;-92
2022/12/24 01:32:55;;;;;;;28.63;8.43;;;;;;;7.55;100.00;100628.25;10406331;28;20090;-91
2022/12/24 01:37:56;;;;;;;42.17;13.38;;;;;;;7.56;100.00;100630.03;10409329;28;20125;-93
2022/12/24 01:48:34;;;;;;;29.42;8.30;;;;;;;7.47;100.00;100644.34;10406781;28;20468;-90
2022/12/24 01:53:36;;;;;;;19.73;8.13;;;;;;;7.45;100.00;100645.03;10406559;28;20033;-91
2022/12/24 01:58:36;;;;;;;27.80;6.93;;;;;;;7.51;100.00;100636.69;10408338;28;20033;-93
2022/12/24 02:03:37;;;;;;;29.25;7.10;;;;;;;7.42;100.00;100642.25;10387758;28;20451;-91
2022/12/24 02:08:40;;;;;;;38.40;13.57;;;;;;;7.33;100.00;100653.06;10402931;28;20088;-91
2022/12/24 02:13:59;;;;;;;36.20;11.63;;;;;;;7.49;100.00;100647.94;10405749;28;20038;-92
2022/12/24 02:19:41;;;;;;;25.67;7.05;;;;;;;7.81;100.00;100658.34;10423197;28;20051;-92
2022/12/24 02:24:56;;;;;;;30.90;8.32;;;;;;;7.93;100.00;100648.59;10434380;28;20445;-91
2022/12/24 02:30:00;;;;;;;23.13;9.90;;;;;;;8.08;100.00;100651.16;10472972;28;20045;-92
2022/12/24 02:35:07;;;;;;;16.92;7.20;;;;;;;8.17;100.00;100650.72;10486942;28;20109;-92
2022/12/24 02:40:17;;;;;;;32.35;9.63;;;;;;;8.07;100.00;100664.09;10421759;28;20080;-90
2022/12/24 02:45:20;;;;;;;26.45;7.18;;;;;;;8.25;100.00;100658.06;10427078;28;20041;-92
2022/12/24 02:50:21;;;;;;;21.67;7.10;;;;;;;8.28;100.00;100668.66;10412130;28;20098;-91
2022/12/24 02:55:24;;;;;;;30.55;10.20;;;;;;;8.27;100.00;100679.91;10444431;28;20118;-92
2022/12/24 03:00:25;;;;;;;31.70;6.93;;;;;;;8.29;100.00;100667.84;10444258;28;20041;-91
2022/12/24 03:05:32;;;;;;;29.38;7.95;;;;;;;8.27;100.00;100666.88;10443367;28;20053;-90
2022/12/24 03:10:33;;;;;;;26.10;6.38;;;;;;;8.18;100.00;100672.50;10475680;28;20040;-89
2022/12/24 03:15:33;;;;;;;22.88;7.15;;;;;;;8.31;100.00;100681.88;10479910;28;20049;-92
2022/12/24 03:20:39;;;;;;;28.30;6.68;;;;;;;8.36;100.00;100691.75;10450630;28;20052;-91
2022/12/24 03:25:41;;;;;;;21.92;6.07;;;;;;;8.38;100.00;100684.91;10410522;28;20049;-92
2022/12/24 03:30:43;;;;;;;16.75;6.75;;;;;;;8.36;100.00;100683.00;10472016;28;20548;-92
2022/12/24 03:35:43;;;;;;;16.50;4.87;;;;;;;8.29;100.00;100692.22;10458596;28;20036;-91
2022/12/24 03:40:44;;;;;;;21.60;7.18;;;;;;;8.29;100.00;100702.66;10476514;28;20295;-93
2022/12/24 03:45:44;;;;;;;19.77;5.65;;;;;;;8.13;100.00;100721.75;10443831;28;20045;-93
2022/12/24 03:50:45;;;;;;;18.88;6.05;;;;;;;8.02;100.00;100723.78;10442557;28;20036;-93
2022/12/24 03:55:46;;;;;;;17.88;5.70;;;;;;;7.98;100.00;100734.84;10478466;28;20044;-93
2022/12/24 04:00:46;;;;;;;26.08;7.63;;;;;;;7.94;100.00;100738.09;10443000;28;20047;-94
2022/12/24 04:05:47;;;;;;;24.98;6.38;;;;;;;7.97;100.00;100742.56;10445201;28;20112;-93
2022/12/24 04:10:47;;;;;;;20.95;6.85;;;;;;;7.98;100.00;100742.69;10449813;28;20044;-94
2022/12/24 04:16:01;;;;;;;35.80;10.07;;;;;;;7.97;100.00;100743.50;10455759;28;20045;-94
2022/12/24 04:21:01;;;;;;;20.23;5.60;;;;;;;7.96;100.00;100743.38;10439745;28;20037;-89
2022/12/24 04:26:03;;;;;;;27.42;6.25;;;;;;;7.93;100.00;100754.56;10462694;28;20045;-93
2022/12/24 04:31:06;;;;;;;19.30;5.00;;;;;;;7.87;100.00;100762.03;10433464;28;20041;-93
2022/12/24 04:36:07;;;;;;;29.45;6.47;;;;;;;7.76;100.00;100771.81;10443897;28;20400;-91
2022/12/24 04:41:13;;;;;;;30.88;8.40;;;;;;;7.86;100.00;100778.47;10479427;28;20094;-93
2022/12/24 04:46:25;;;;;;;26.20;6.60;;;;;;;7.93;100.00;100772.78;10432327;28;20117;-93
2022/12/24 04:51:26;;;;;;;20.33;7.30;;;;;;;8.01;100.00;100775.81;10468251;28;20066;-92
2022/12/24 04:56:29;;;;;;;19.05;7.78;;;;;;;8.13;100.00;100767.81;10474051;28;20036;-90
2022/12/24 05:01:30;;;;;;;16.15;6.28;;;;;;;8.16;100.00;100771.47;10446962;28;20091;-90
2022/12/24 05:06:31;;;;;;;27.97;10.27;;;;;;;8.20;100.00;100769.94;10449141;28;20033;-90
2022/12/24 05:11:32;;;;;;;22.20;7.03;;;;;;;8.26;100.00;100772.91;10471447;28;20045;-90
2022/12/24 05:16:32;;;;;;;18.42;6.20;;;;;;;8.28;100.00;100780.78;10432080;28;20045;-90
2022/12/24 05:21:33;;;;;;;15.57;4.85;;;;;;;8.31;100.00;100765.31;10433264;28;20109;-92
2022/12/24 05:26:36;;;;;;;25.48;8.27;;;;;;;8.29;100.00;100772.16;10409910;28;20041;-87
2022/12/24 05:31:38;;;;;;;31.05;8.70;;;;;;;8.32;100.00;100774.94;10411634;28;20043;-88
2022/12/24 05:36:39;;;;;;;;;;;;;;;8.29;100.00;100773.06;10428720;28;20045;-86
2022/12/24 05:41:39;;;;;;;20.63;6.55;;;;;;;8.26;100.00;100793.75;10445133;28;19925;-86
2022/12/24 05:46:40;;;;;;;23.10;7.50;;;;;;;8.26;100.00;100792.84;10446395;28;20044;-88
2022/12/24 05:51:41;;;;;;;29.30;7.65;;;;;;;8.26;100.00;100798.97;10446738;28;20504;-88
2022/12/24 05:56:41;;;;;;;30.38;10.45;;;;;;;8.22;100.00;100795.28;10443769;28;20030;-86
2022/12/24 06:01:45;;;;;;;29.73;6.65;;;;;;;8.11;100.00;100799.00;10448947;28;20116;-89
2022/12/24 06:06:46;;;;;;;33.83;8.10;;;;;;;8.04;100.00;100804.66;10409718;28;20462;-95
2022/12/24 06:11:47;;;;;;;33.78;7.20;;;;;;;8.00;100.00;100813.13;10413320;28;20049;-89
2022/12/24 06:16:47;;;;;;;25.67;8.27;;;;;;;7.98;100.00;100807.84;10416629;28;20072;-86
2022/12/24 06:21:48;;;;;;;18.25;6.50;;;;;;;7.89;100.00;100810.78;10403454;28;20037;-91
2022/12/24 06:26:48;;;;;;;40.80;8.98;;;;;;;7.79;100.00;100816.28;10438361;28;20041;-94
2022/12/24 06:31:49;;;;;;;24.33;8.25;;;;;;;7.77;100.00;100820.50;10448090;28;20043;-92
2022/12/24 06:36:50;;;;;;;27.35;7.32;;;;;;;7.70;100.00;100831.38;10447128;28;20495;-90
2022/12/24 06:41:50;;;;;;;40.88;8.68;;;;;;;7.62;100.00;100842.25;10413642;28;20048;-93
2022/12/24 06:46:51;;;;;;;26.25;8.75;;;;;;;7.57;100.00;100848.00;10405544;28;20132;-90
2022/12/24 06:51:51;;;;;;;27.73;9.30;;;;;;;7.61;100.00;100856.09;10408559;28;20041;-89
2022/12/24 06:56:52;;;;;;;25.90;8.55;;;;;;;7.78;100.00;100848.34;10410203;28;20049;-91
2022/12/24 07:01:52;;;;;;;32.83;7.40;;;;;;;7.77;100.00;100857.91;10452595;28;20036;-90
2022/12/24 07:06:53;;;;;;;33.78;9.02;;;;;;;7.70;100.00;100855.75;10463239;28;20130;-89
2022/12/24 07:11:53;;;;;;;36.95;9.55;;;;;;;7.76;100.00;100869.13;10443156;28;20094;-91
2022/12/24 07:16:56;;;;;;;31.30;7.68;;;;;;;7.99;100.00;100873.88;10441635;28;20053;-91
2022/12/24 07:21:56;;;;;;;;;;;;;;;8.05;100.00;100872.53;10442095;28;20090;-91
2022/12/24 07:26:56;;;;;;;30.75;9.20;;;;;;;8.13;100.00;100888.59;10441802;28;19913;-90
2022/12/24 07:31:57;;;;;;;23.67;8.57;;;;;;;8.18;100.00;100891.50;10445487;28;20519;-91
2022/12/24 07:36:57;;;;;;;23.10;7.80;;;;;;;8.23;100.00;100900.47;10439265;28;20144;-87
2022/12/24 07:41:58;;;;;;;28.83;9.07;;;;;;;8.25;100.00;100897.94;10457209;28;20044;-91
2022/12/24 07:46:58;;;;;;;21.60;8.50;;;;;;;8.33;100.00;100905.41;10470553;28;20070;-94
2022/12/24 07:52:09;;;;;;;25.23;8.00;;;;;;;8.32;100.00;100914.06;10456572;28;20593;-94
2022/12/24 07:57:10;;;;;;;29.08;8.13;;;;;;;8.30;100.00;100914.75;10473987;28;20388;-93
2022/12/24 08:02:10;;;;;;;28.38;9.82;;;;;;;8.33;100.00;100920.16;10460593;28;20068;-90
2022/12/24 08:07:11;;;;;;;29.60;9.38;;;;;;;8.40;100.00;100931.84;10406037;28;20112;-94
2022/12/24 08:12:12;;;;;;;20.45;7.68;;;;;;;8.52;100.00;100933.47;10389877;28;20037;-89
2022/12/24 08:17:12;;;;;;;20.90;7.72;;;;;;;8.45;100.00;100952.16;10400157;28;20040;-87
2022/12/24 08:22:14;;;;;;;28.40;7.18;;;;;;;8.41;100.00;100950.19;10396722;28;20111;-85
2022/12/24 08:27:14;;;;;;;30.20;6.40;;;;;;;8.32;100.00;100947.94;10357503;28;20042;-85
2022/12/24 08:32:15;;;;;;;30.52;8.48;;;;;;;8.32;100.00;100957.47;10390209;28;20382;-84
2022/12/24 08:37:15;;;;;;;36.05;9.25;;;;;;;8.23;100.00;100966.56;10401998;28;20120;-91
2022/12/24 08:42:16;;;;;;;44.38;18.52;;;;;;;8.23;100.00;100963.06;10369946;28;20034;-86
2022/12/24 08:47:17;;;;;;;23.83;11.45;;;;;;;8.13;100.00;100971.16;10395279;28;20056;-89
2022/12/24 08:52:17;;;;;;;34.72;9.35;;;;;;;8.21;100.00;100985.53;10378322;28;20045;-84
2022/12/24 08:57:19;;;;;;;25.45;8.80;;;;;;;8.37;100.00;100980.41;10369929;28;20132;-82
2022/12/24 09:02:19;;;;;;;32.70;9.38;;;;;;;8.38;100.00;100990.03;10381405;28;20049;-81
2022/12/24 09:07:20;;;;;;;27.45;7.97;;;;;;;8.37;100.00;100997.75;10417840;28;20045;-83
2022/12/24 09:12:20;;;;;;;29.38;9.60;;;;;;;8.44;100.00;101005.13;10441530;28;20128;-82
2022/12/24 09:17:21;;;;;;;22.90;7.78;;;;;;;8.49;100.00;101010.66;10429826;28;20044;-82
2022/12/24 09:22:21;;;;;;;34.42;10.63;;;;;;;8.51;100.00;101022.97;10470432;28;20375;-82
2022/12/24 09:27:22;;;;;;;21.13;7.75;;;;;;;8.61;100.00;101034.84;10440123;28;20500;-81
2022/12/24 09:32:22;;;;;;;26.88;10.13;;;;;;;8.69;100.00;101057.88;10454093;28;20037;-82
2022/12/24 09:37:23;;;;;;;36.40;8.23;;;;;;;8.78;100.00;101061.03;10451900;28;20458;-80
2022/12/24 09:42:23;;;;;;;33.40;8.68;;;;;;;8.81;100.00;101058.59;10404154;28;20060;-79
2022/12/24 09:47:28;;;;;;;32.53;12.82;;;;;;;8.85;100.00;101063.19;10401989;28;20049;-80
2022/12/24 09:52:34;;;;;;;28.27;8.32;;;;;;;8.99;100.00;101063.09;10442867;28;20554;-80
2022/12/24 09:57:35;;;;;;;30.00;9.60;;;;;;;9.32;100.00;101073.63;10424602;28;20083;-80
2022/12/24 10:02:36;;;;;;;48.25;19.88;;;;;;;9.43;100.00;101079.44;10447120;28;20040;-83
2022/12/24 10:07:59;;;;;;;39.20;18.08;;;;;;;9.27;100.00;101075.97;10448865;28;20120;-83
2022/12/24 10:13:21;;;;;;;27.75;10.45;;;;;;;9.18;100.00;101080.69;10410873;28;20073;-84
2022/12/24 10:18:38;;;;;;;28.55;8.85;;;;;;;9.17;100.00;101089.31;10455911;28;20432;-84
2022/12/24 10:23:52;;;;;;;27.08;8.48;;;;;;;9.08;100.00;101089.72;10482492;28;20064;-83
2022/12/24 10:29:41;;;;;;;35.75;9.32;;;;;;;9.13;100.00;101085.66;10443555;28;20033;-83
2022/12/24 10:34:45;;;;;;;39.17;8.65;;;;;;;9.08;100.00;101084.50;10418501;28;20124;-84
2022/12/24 10:39:46;;;;;;;28.05;8.63;;;;;;;9.16;100.00;101075.38;10457825;28;20037;-84
2022/12/24 10:44:49;;;;;;;34.30;7.35;;;;;;;9.28;100.00;101069.06;10478340;28;20063;-84
2022/12/24 10:50:12;;;;;;;44.95;12.93;;;;;;;9.49;100.00;101062.41;10466220;28;20047;-84
2022/12/24 10:55:16;;;;;;;22.65;8.65;;;;;;;9.96;100.00;101075.38;10466070;28;20064;-83
2022/12/24 11:00:21;;;;;;;24.38;8.82;;;;;;;9.86;100.00;101071.34;10484127;28;20046;-83
2022/12/24 11:05:31;;;;;;;29.73;9.60;;;;;;;9.66;100.00;101063.31;10465683;28;20066;-85
2022/12/24 11:10:34;;;;;;;21.48;6.70;;;;;;;9.72;100.00;101064.47;10462892;28;20086;-84
2022/12/24 11:15:35;;;;;;;24.50;9.45;;;;;;;9.74;100.00;101070.69;10459376;28;20512;-84
2022/12/24 11:20:37;;;;;;;35.33;9.80;;;;;;;9.99;100.00;101065.94;10421845;28;20127;-84
2022/12/24 11:25:38;;;;;;;30.15;7.50;;;;;;;11.35;100.00;101044.78;10384478;28;20041;-84
2022/12/24 11:30:38;;;;;;;24.38;6.88;;;;;;;10.94;100.00;101039.38;10382509;28;20060;-84
2022/12/24 11:35:43;;;;;;;27.92;7.55;;;;;;;10.46;100.00;101052.69;10401534;28;20037;-83
2022/12/24 11:40:46;;;;;;;30.00;9.60;;;;;;;10.71;100.00;101062.69;10438144;28;20033;-84
2022/12/24 11:45:53;;;;;;;25.23;9.15;;;;;;;11.06;100.00;101043.41;10441886;28;20033;-83
2022/12/24 11:50:58;;;;;;;42.20;9.35;;;;;;;11.11;100.00;101048.03;10473781;28;20386;-83
2022/12/24 11:55:59;;;;;;;38.92;8.27;;;;;;;12.23;100.00;101050.53;10440069;28;20072;-84
2022/12/24 12:01:14;;;;;;;20.48;6.97;;;;;;;12.70;100.00;101052.50;10465639;28;20025;-80
2022/12/24 12:06:48;;;;;;;36.75;12.52;;;;;;;11.80;100.00;101052.13;10474195;28;20128;-83
2022/12/24 12:11:55;;;;;;;42.63;9.80;;;;;;;11.34;100.00;101058.72;10428455;28;20481;-83
2022/12/24 12:17:04;;;;;;;26.27;7.70;;;;;;;11.41;100.00;101073.91;10437483;28;20673;-83
2022/12/24 12:22:07;;;;;;;23.30;7.35;;;;;;;11.16;100.00;101075.34;10437618;28;20104;-82
2022/12/24 12:27:10;;;;;;;25.13;9.13;;;;;;;10.97;100.00;101080.50;10440442;28;20102;-82
2022/12/24 12:32:15;;;;;;;23.25;7.20;;;;;;;10.84;100.00;101098.22;10441101;28;20136;-82
2022/12/24 12:37:39;;;;;;;33.75;7.43;;;;;;;10.82;100.00;101097.25;10422411;28;20533;-82
2022/12/24 12:42:43;;;;;;;36.95;9.45;;;;;;;10.72;100.00;101109.00;10445388;28;20052;-82
2022/12/24 12:47:49;;;;;;;24.35;7.55;;;;;;;10.64;100.00;101104.16;10430518;28;20033;-82
2022/12/24 12:53:08;;;;;;;31.20;7.15;;;;;;;10.92;100.00;101105.56;10448828;28;20045;-82
2022/12/24 12:58:17;;;;;;;20.17;7.13;;;;;;;11.54;100.00;101109.47;10444136;28;20037;-83
2022/12/24 13:03:24;;;;;;;21.33;6.57;;;;;;;11.52;100.00;101112.84;10464231;28;20032;-82
2022/12/24 13:08:42;;;;;;;16.42;5.47;;;;;;;10.80;100.00;101105.88;10445724;28;20048;-82
2022/12/24 13:14:10;;;;;;;16.85;6.60;;;;;;;10.63;100.00;101103.28;10447900;28;20033;-82
2022/12/24 13:19:44;;;;;;;33.08;7.20;;;;;;;10.69;100.00;101079.13;10446594;28;20067;-82
2022/12/24 13:24:52;;;;;;;19.25;5.28;;;;;;;10.84;100.00;101099.97;10431853;28;20045;-83
2022/12/24 13:30:14;;;;;;;21.38;6.28;;;;;;;11.38;100.00;101102.59;10445498;28;20034;-82
2022/12/24 13:35:17;;;;;;;18.50;5.18;;;;;;;11.76;100.00;101110.50;10405035;28;20064;-82
2022/12/24 13:40:22;;;;;;;12.93;5.78;;;;;;;11.29;100.00;101110.91;10442998;28;20049;-82
2022/12/24 13:45:29;;;;;;;35.05;7.22;;;;;;;10.64;100.00;101126.03;10430519;28;20067;-82
2022/12/24 13:50:46;;;;;;;24.70;7.70;;;;;;;9.96;100.00;101132.88;10452297;28;20045;-82
2022/12/24 13:56:09;;;;;;;18.60;6.43;;;;;;;9.59;100.00;101139.59;10444124;28;20511;-82
2022/12/24 14:01:15;;;;;;;19.73;8.00;;;;;;;9.47;100.00;101131.06;10443387;28;20416;-82
2022/12/24 14:06:29;;;;;;;38.35;9.30;;;;;;;9.34;100.00;101132.09;10444612;28;20041;-82
2022/12/24 14:11:29;;;;;;;27.85;5.55;;;;;;;9.36;100.00;101143.53;10463574;28;20044;-82
2022/12/24 14:16:31;;;;;;;19.75;6.70;;;;;;;9.19;100.00;101147.75;10451734;28;20523;-83
2022/12/24 14:21:36;;;;;;;22.63;7.97;;;;;;;9.03;100.00;101159.94;10484958;28;20048;-83
2022/12/24 14:26:44;;;;;;;18.33;5.95;;;;;;;8.87;100.00;101167.66;10459965;28;20392;-83
2022/12/24 14:31:55;;;;;;;29.15;7.53;;;;;;;8.69;100.00;101172.69;10455446;28;20106;-83
2022/12/24 14:36:55;;;;;;;22.70;8.07;;;;;;;8.61;100.00;101173.16;10449050;28;20048;-82
2022/12/24 14:42:14;;;;;;;23.48;6.72;;;;;;;8.40;100.00;101169.19;10449740;28;20126;-82
2022/12/24 14:47:30;;;;;;;23.20;7.47;;;;;;;8.17;100.00;101182.59;10468149;28;20036;-82
2022/12/24 14:52:51;;;;;;;24.95;8.35;;;;;;;8.06;100.00;101186.22;10420350;28;20040;-82
2022/12/24 14:58:29;;;;;;;18.30;7.18;;;;;;;8.04;100.00;101207.00;10442206;28;20443;-82
2022/12/24 15:03:31;;;;;;;29.58;8.15;;;;;;;7.80;100.00;101214.16;10462250;28;20373;-82
2022/12/24 15:08:35;;;;;;;12.75;7.18;;;;;;;7.41;100.00;101223.75;10443215;28;20045;-82
2022/12/24 15:13:36;;;;;;;25.35;9.50;;;;;;;7.08;100.00;101241.53;10462439;28;20123;-82
2022/12/24 15:18:42;;;;;;;20.70;9.20;;;;;;;6.84;100.00;101249.47;10479466;28;20047;-82
2022/12/24 15:23:47;;;;;;;44.00;11.35;;;;;;;6.55;100.00;101264.88;10440344;28;20064;-85
2022/12/24 15:28:48;;;;;;;18.23;7.88;;;;;;;6.37;100.00;101260.97;10378635;28;20076;-87
2022/12/24 15:33:50;;;;;;;32.35;9.75;;;;;;;6.15;100.00;101268.13;10415460;28;20033;-86
2022/12/24 15:38:52;;;;;;;24.92;9.30;;;;;;;5.98;100.00;101281.56;10422896;28;20041;-86
2022/12/24 15:43:53;;;;;;;18.95;9.05;;;;;;;5.91;100.00;101282.81;10436157;28;20033;-91
2022/12/24 15:48:55;;;;;;;34.95;8.55;;;;;;;5.75;100.00;101280.78;10366465;28;20061;-84
2022/12/24 15:54:01;;;;;;;31.80;9.68;;;;;;;5.68;100.00;101294.09;10383999;28;20046;-84
2022/12/24 15:59:10;;;;;;;23.63;8.57;;;;;;;5.43;100.00;101285.41;10442313;28;20157;-81
2022/12/24 16:04:21;;;;;;;39.22;9.95;;;;;;;5.41;100.00;101292.16;10472332;28;20037;-85
2022/12/24 16:09:33;;;;;;;39.60;11.18;;;;;;;5.45;100.00;101293.28;10478099;28;20165;-84
2022/12/24 16:14:34;;;;;;;40.08;13.93;;;;;;;5.38;100.00;101291.94;10486068;28;20048;-86
2022/12/24 16:19:34;;;;;;;29.02;8.60;;;;;;;5.32;100.00;101295.75;10476108;28;20066;-85
2022/12/24 16:24:35;;;;;;;33.38;10.70;;;;;;;5.38;100.00;101309.19;10494912;28;20041;-84
2022/12/24 16:29:35;;;;;;;35.10;10.85;;;;;;;5.30;100.00;101290.47;10494752;28;20044;-83
2022/12/24 16:34:36;;;;;;;23.50;11.73;;;;;;;5.30;100.00;101298.25;10444504;28;20118;-84
2022/12/24 16:39:36;;;;;;;34.40;12.32;;;;;;;5.21;100.00;101305.31;10412141;28;20394;-83
2022/12/24 16:44:37;;;;;;;27.88;10.00;;;;;;;5.17;100.00;101318.84;10428944;28;20037;-85
2022/12/24 16:49:37;;;;;;;29.63;11.00;;;;;;;5.14;100.00;101329.88;10436281;28;20485;-84
2022/12/24 16:54:38;;;;;;;30.33;11.48;;;;;;;5.08;100.00;101330.34;10438403;28;20069;-84
2022/12/24 16:59:39;;;;;;;40.63;13.45;;;;;;;5.11;100.00;101334.84;10411298;28;20462;-84
2022/12/24 17:04:39;;;;;;;31.00;11.70;;;;;;;5.11;100.00;101325.38;10431537;28;20070;-83
2022/12/24 17:09:40;;;;;;;29.95;10.10;;;;;;;4.98;100.00;101330.41;10437887;28;20178;-85
2022/12/24 17:14:41;;;;;;;35.58;14.43;;;;;;;4.88;100.00;101328.78;10421057;28;20082;-86
2022/12/24 17:19:41;;;;;;;41.50;11.43;;;;;;;4.96;100.00;101321.59;10401473;28;20041;-85
2022/12/24 17:24:42;;;;;;;37.90;14.65;;;;;;;5.02;100.00;101327.28;10413769;28;20048;-84
2022/12/24 17:29:43;;;;;;;26.77;11.68;;;;;;;4.98;100.00;101331.31;10397328;28;20083;-74
2022/12/24 17:34:43;;;;;;;34.00;9.93;;;;;;;5.00;100.00;101319.34;10396527;28;20128;-75
2022/12/24 17:39:44;;;;;;;41.38;14.57;;;;;;;5.12;100.00;101326.28;10422345;28;20191;-74
2022/12/24 17:44:44;;;;;;;28.10;12.63;;;;;;;5.23;100.00;101342.69;10431979;28;20128;-73
2022/12/24 17:49:45;;;;;;;31.10;14.07;;;;;;;5.25;100.00;101360.16;10404548;28;20144;-74
2022/12/24 17:54:45;;;;;;;40.58;12.60;;;;;;;5.27;100.00;101363.78;10413330;28;20481;-74
2022/12/24 17:59:46;;;;;;;36.83;10.80;;;;;;;5.37;100.00;101339.44;10415213;28;20043;-75
2022/12/24 18:04:46;;;;;;;44.60;13.25;;;;;;;5.44;100.00;101320.03;10412082;28;20041;-74
2022/12/24 18:09:47;;;;;;;25.77;11.38;;;;;;;5.24;100.00;101313.34;10396008;28;20041;-73
2022/12/24 18:14:48;;;;;;;27.63;11.48;;;;;;;5.13;100.00;101328.06;10409140;28;20052;-75
2022/12/24 18:19:48;;;;;;;43.63;12.95;;;;;;;4.97;100.00;101332.09;10401092;28;20390;-75
2022/12/24 18:24:49;;;;;;;32.60;11.98;;;;;;;4.93;100.00;101323.97;10413621;28;20037;-74
2022/12/24 18:29:49;;;;;;;40.65;14.45;;;;;;;4.90;100.00;101324.63;10412564;28;20466;-74
2022/12/24 18:34:50;;;;;;;38.13;14.35;;;;;;;4.87;100.00;101329.56;10400315;28;20549;-73
2022/12/24 18:39:51;;;;;;;40.58;15.55;;;;;;;4.89;100.00;101321.91;10398907;28;20038;-73
2022/12/24 18:44:51;;;;;;;41.28;14.70;;;;;;;4.80;100.00;101322.09;10407784;28;20128;-74
2022/12/24 18:49:52;;;;;;;36.83;16.95;;;;;;;4.75;100.00;101324.34;10401887;28;20124;-73
2022/12/24 18:54:52;;;;;;;39.33;14.77;;;;;;;4.79;100.00;101323.78;10420252;28;20051;-73
2022/12/24 18:59:53;;;;;;;31.55;13.50;;;;;;;4.87;100.00;101319.19;10401096;28;20132;-76
2022/12/24 19:04:54;;;;;;;67.30;20.23;;;;;;;4.93;100.00;101322.25;10409307;28;20056;-89
2022/12/24 19:09:54;;;;;;;34.70;14.73;;;;;;;5.01;100.00;101320.28;10416967;28;20128;-86
2022/12/24 19:14:55;;;;;;;38.30;16.40;;;;;;;4.96;100.00;101313.81;10422116;28;20060;-84
2022/12/24 19:19:55;;;;;;;41.05;15.32;;;;;;;4.93;100.00;101336.94;10422146;28;20504;-86
2022/12/24 19:24:56;;;;;;;39.17;15.60;;;;;;;5.01;100.00;101335.84;10467277;28;20037;-86
2022/12/24 19:29:56;;;;;;;46.53;17.85;;;;;;;5.09;100.00;101331.22;10419621;28;20539;-86
2022/12/24 19:34:57;;;;;;;34.20;16.08;;;;;;;5.16;100.00;101330.03;10481004;28;20622;-86
2022/12/24 19:39:57;;;;;;;45.13;17.42;;;;;;;5.18;100.00;101338.84;10464191;28;20041;-86
2022/12/24 19:44:58;;;;;;;35.90;18.35;;;;;;;5.27;100.00;101331.75;10441058;28;20496;-86
2022/12/24 19:49:58;;;;;;;56.03;21.08;;;;;;;5.36;100.00;101340.25;10445077;28;20035;-86
2022/12/24 19:54:59;;;;;;;45.72;18.35;;;;;;;5.33;100.00;101350.38;10481597;28;20050;-86
2022/12/24 19:59:59;;;;;;;51.53;18.27;;;;;;;5.30;100.00;101347.56;10463248;28;20128;-85
2022/12/24 20:05:00;;;;;;;45.70;19.48;;;;;;;5.27;100.00;101347.31;10446583;28;20532;-86
2022/12/24 20:10:01;;;;;;;41.53;20.40;;;;;;;5.28;100.00;101339.63;10423156;28;20028;-85
2022/12/24 20:15:01;;;;;;;47.65;18.73;;;;;;;5.28;100.00;101354.31;10408637;28;20041;-85
2022/12/24 20:20:02;;;;;;;56.20;22.48;;;;;;;5.21;100.00;101367.63;10432148;28;20124;-85
2022/12/24 20:25:02;;;;;;;45.25;17.60;;;;;;;5.17;100.00;101356.06;10484120;28;20047;-86
2022/12/24 20:30:04;;;;;;;49.17;20.25;;;;;;;5.26;100.00;101364.56;10418925;28;20048;-85
2022/12/24 20:35:05;;;;;;;46.40;19.75;;;;;;;5.33;100.00;101368.56;10433285;28;20055;-86
2022/12/24 20:40:06;;;;;;;55.30;21.83;;;;;;;5.43;100.00;101371.06;10444841;28;20036;-86
2022/12/24 20:45:06;;;;;;;49.90;20.40;;;;;;;5.53;100.00;101376.97;10450472;28;20057;-86
2022/12/24 20:50:07;;;;;;;49.58;21.35;;;;;;;5.52;100.00;101380.34;10449121;28;20457;-85
2022/12/24 20:55:08;;;;;;;41.13;18.65;;;;;;;5.50;100.00;101402.69;10438536;28;20071;-86
2022/12/24 21:00:09;;;;;;;49.45;18.90;;;;;;;5.48;100.00;101389.59;10383629;28;20128;-86
2022/12/24 21:05:11;;;;;;;59.78;19.60;;;;;;;5.61;100.00;101395.72;10402984;28;20604;-86
2022/12/24 21:10:12;;;;;;;46.17;18.70;;;;;;;5.53;100.00;101384.75;10446948;28;20048;-86
2022/12/24 21:15:13;;;;;;;36.47;18.70;;;;;;;5.48;100.00;101362.72;10446318;28;20072;-86
2022/12/24 21:20:14;;;;;;;46.97;16.42;;;;;;;5.40;100.00;101376.03;10477941;28;20121;-86
2022/12/24 21:25:15;;;;;;;50.70;23.10;;;;;;;5.36;100.00;101375.66;10445663;28;20037;-86
2022/12/24 21:30:15;;;;;;;32.10;14.93;;;;;;;5.26;100.00;101372.34;10420874;28;20128;-86
2022/12/24 21:35:16;;;;;;;28.50;15.77;;;;;;;5.21;100.00;101362.41;10485526;28;20044;-86
2022/12/24 21:40:17;;;;;;;34.72;16.75;;;;;;;5.24;100.00;101362.66;10420465;28;20116;-86
2022/12/24 21:45:17;;;;;;;40.35;20.52;;;;;;;5.26;100.00;101358.50;10472230;28;20033;-83
2022/12/24 21:55:37;;;;;;;37.33;19.80;;;;;;;5.20;100.00;101334.66;10472268;28;20639;-84
2022/12/24 22:00:38;;;;;;;47.47;21.58;;;;;;;5.18;100.00;101318.97;10446008;28;20041;-86
2022/12/24 22:05:38;;;;;;;55.92;22.48;;;;;;;5.26;100.00;101311.78;10445189;28;20037;-87
2022/12/24 22:15:58;;;;;;;34.65;19.10;;;;;;;4.96;100.00;101308.63;10445056;28;20037;-87
2022/12/24 22:21:00;;;;;;;38.20;19.90;;;;;;;4.92;100.00;101293.63;10437993;28;20062;-87
2022/12/24 22:26:11;;;;;;;35.03;19.63;;;;;;;4.83;100.00;101294.72;10445038;28;20051;-87
2022/12/24 22:31:19;;;;;;;59.30;24.15;;;;;;;4.64;100.00;101278.50;10475024;28;20432;-86
2022/12/24 22:36:20;;;;;;;39.28;17.65;;;;;;;4.52;100.00;101286.22;10442529;28;20048;-87
2022/12/24 22:41:20;;;;;;;38.03;17.45;;;;;;;4.52;100.00;101288.81;10446773;28;20071;-87
2022/12/24 22:46:21;;;;;;;41.05;17.80;;;;;;;4.59;100.00;101297.97;10466607;28;20078;-87
2022/12/24 22:51:22;;;;;;;86.93;23.17;;;;;;;4.47;100.00;101291.06;10460781;28;20037;-87
2022/12/24 22:56:23;;;;;;;43.35;16.33;;;;;;;4.41;100.00;101281.09;10444621;28;20056;-86
2022/12/24 23:01:37;;;;;;;35.75;17.90;;;;;;;4.46;100.00;101291.84;10451148;28;20425;-86
2022/12/24 23:06:37;;;;;;;40.30;13.75;;;;;;;4.48;100.00;101279.91;10458640;28;20728;-87
2022/12/24 23:11:39;;;;;;;36.22;17.38;;;;;;;4.49;100.00;101284.28;10447776;28;20037;-87